Central City, KY (42330)

10:41 PM CDT on July 04, 2015 (GMT -0500)
West Side Oak Hill Cemetary .... dchsr | | Change Station
CLOSE
Current Station
Personal Weather Station
Location: Livermore, KY
Elevation: 436 ft
Nearby Weather Stations
Active Advisory: Flood Warning

Elev 436 ft 37.49 °N, 87.13 °W | Updated 50 minutes ago

Clear
Clear
72.3 °F
Feels Like 72.3 °F
N
0.0
Wind Variable Wind from SW
Gusts 0.0 mph

Today
High -- | Low -- °F
--% Chance of Precip.
Yesterday
High -- | Low -- °F
Precip. -- in
5:33 AM 8:12 PM
Waning Gibbous, 88% visible
Pressure 30.01 in
Visibility 3.0 miles
Clouds Clear
Dew Point 70 °F
Humidity 93%
Rainfall 0.00 in
Snow Depth Not available.
UV 0 out of 12
Pollen .50 out of 12
Air Quality Not available.
Flu Activity Not available.
METAR K2I0 050315Z AUTO 00000KT 3SM BR CLR 23/22 A3001 RMK AO2 T02250216

More Conditions Fewer Conditions

Pressure 30.01 in
Visibility 3.0 miles
Clouds Clear
Dew Point 70 °F
Humidity 93%
Rainfall 0.00 in
Snow Depth Not available.
UV 0 out of 12
Pollen .50 out of 12
Air Quality Not available.
Flu Activity Not available.
METAR K2I0 050315Z AUTO 00000KT 3SM BR CLR 23/22 A3001 RMK AO2 T02250216

More Conditions Fewer Conditions

10-Day Weather Forecast

×

Almanac

Astronomy

Jul. 04, 2015 Rise Set
Actual Time
Civil Twilight
Nautical Twilight
Astronomical Twilight
Moon
Length of Visible Light
Length of Day
Tomorrow will be .
, % of the Moon is Illuminated

Today's Extremes

State Highs State Lows

Community

WunderPhotos

Upload Photos

1,835,193 photos uploaded!

WunderBlogs® & News

Nearby

Air Quality

  Air Quality AQ Index Pollutant
Not available.

Snow Depth

Station Depth Elevation

Earthquake Activity

City Distance Mag. Time & Date
Minimum magnitude displayed is 2.5.

Coastal Water Temperatures

Place Temperature

Stations

Nearby Weather Stations

Station Location Temp. Windchill Dew Point Humidity Wind Precip. Elev Updated Type
                   
Flood Warning
Statement as of 9:40 PM CDT on July 04, 2015

The Flood Warning continues for
the Green River at Paradise.
* Until Monday afternoon.
* At 9:15 PM Saturday the stage was 379.7 feet.
* Flood stage is 380.0 feet.
* Minor flooding is forecast.
* Forecast... rise above flood stage by early tomorrow and continue to
rise to near 380.6 feet by tomorrow evening. The river will fall
below flood stage by Monday morning.
* Impact... at 380.0 feet... water rises over the skimmer wall at the
TVA Fossil plant.


Lat... Lon 3746 8716 3731 8719 3729 8707 3720 8697
      3726 8689 3742 8703